Time;durP1;ratioP1;P1;durP2;ratioP2;P2;SDS_P1;SDS_P2;PMS_P1;PMS_P2;Temp;Humidity;BMP_temperature;BMP_pressure;BME280_temperature;BME280_humidity;BME280_pressure;Samples;Min_cycle;Max_cycle;Signal;HPM_P1;HPM_P2
2022/03/18 00:02:25;;;;;;;7.57;5.53;;;;;;;;;;4992876;28;20382;-83
2022/03/18 00:04:51;;;;;;;6.50;4.90;;;;;;;;;;4992248;28;20046;-83
2022/03/18 00:07:17;;;;;;;5.65;4.60;;;;;;;;;;4970920;28;20064;-83
2022/03/18 00:09:42;;;;;;;7.38;5.35;;;;;;;;;;4960233;28;20038;-83
2022/03/18 00:12:09;;;;;;;9.23;5.60;;;;;;;;;;4976254;28;20125;-83
2022/03/18 00:14:34;;;;;;;7.10;5.20;;;;;;;;;;4960207;28;20497;-83
2022/03/18 00:17:00;;;;;;;7.72;5.50;;;;;;;;;;4976425;28;20041;-83
2022/03/18 00:19:27;;;;;;;8.52;5.95;;;;;;;;;;4975651;28;20034;-82
2022/03/18 00:22:00;;;;;;;8.20;5.30;;;;;;;;;;4960118;28;20408;-83
2022/03/18 00:24:25;;;;;;;8.00;5.70;;;;;;;;;;4977894;28;20038;-83
2022/03/18 00:26:51;;;;;;;6.53;5.40;;;;;;;;;;4976390;28;20378;-84
2022/03/18 00:29:16;;;;;;;8.15;5.72;;;;;;;;;;4976205;28;20524;-83
2022/03/18 00:31:41;;;;;;;6.72;5.55;;;;;;;;;;4975073;28;20413;-83
2022/03/18 00:34:08;;;;;;;6.85;5.20;;;;;;;;;;4959162;28;20042;-83
2022/03/18 00:36:34;;;;;;;6.45;5.25;;;;;;;;;;4975983;28;20116;-83
2022/03/18 00:39:00;;;;;;;6.95;4.95;;;;;;;;;;4956021;28;20446;-83
2022/03/18 00:41:26;;;;;;;7.03;4.88;;;;;;;;;;4956629;28;20043;-83
2022/03/18 00:43:52;;;;;;;8.43;5.40;;;;;;;;;;4972495;28;20058;-83
2022/03/18 00:46:20;;;;;;;7.80;4.97;;;;;;;;;;4956620;28;20106;-83
2022/03/18 00:54:14;;;;;;;6.45;5.10;;;;;;;;;;4978198;28;20041;-83
2022/03/18 00:56:39;;;;;;;6.38;5.15;;;;;;;;;;4975527;28;20042;-83
2022/03/18 00:59:05;;;;;;;6.53;4.75;;;;;;;;;;4975285;28;20523;-83
2022/03/18 01:01:30;;;;;;;6.85;5.18;;;;;;;;;;4975163;28;20038;-83
2022/03/18 01:03:56;;;;;;;7.05;4.70;;;;;;;;;;4990898;28;20034;-83
2022/03/18 01:06:21;;;;;;;6.90;5.32;;;;;;;;;;4990243;28;20492;-83
2022/03/18 01:08:46;;;;;;;7.60;5.20;;;;;;;;;;4955907;28;20043;-83
2022/03/18 01:11:12;;;;;;;7.30;5.43;;;;;;;;;;4939823;28;20493;-83
2022/03/18 01:13:37;;;;;;;6.97;5.25;;;;;;;;;;4955845;28;20042;-83
2022/03/18 01:16:03;;;;;;;7.38;5.53;;;;;;;;;;4955780;28;20089;-83
2022/03/18 01:18:28;;;;;;;7.28;5.18;;;;;;;;;;4939805;28;20027;-83
2022/03/18 01:20:54;;;;;;;7.97;5.78;;;;;;;;;;4939491;28;20043;-83
2022/03/18 01:23:19;;;;;;;5.72;4.35;;;;;;;;;;4955977;28;20126;-83
2022/03/18 01:25:44;;;;;;;6.70;5.00;;;;;;;;;;4955587;28;20039;-83
2022/03/18 01:28:10;;;;;;;7.63;5.85;;;;;;;;;;4955907;28;20027;-83
2022/03/18 01:30:35;;;;;;;6.38;4.93;;;;;;;;;;4955652;28;20042;-83
2022/03/18 01:33:01;;;;;;;6.18;5.00;;;;;;;;;;4948057;28;20047;-83
2022/03/18 01:35:27;;;;;;;7.65;5.00;;;;;;;;;;4958513;28;20042;-83
2022/03/18 01:37:52;;;;;;;6.93;5.50;;;;;;;;;;4974668;28;20026;-83
2022/03/18 01:40:18;;;;;;;8.50;5.30;;;;;;;;;;4958865;28;20125;-83
2022/03/18 01:42:43;;;;;;;7.50;4.95;;;;;;;;;;4990978;28;20531;-83
2022/03/18 01:45:09;;;;;;;6.90;5.35;;;;;;;;;;4958720;28;20046;-83
2022/03/18 01:47:34;;;;;;;6.93;5.13;;;;;;;;;;4958831;28;20497;-83
2022/03/18 01:50:00;;;;;;;7.35;5.65;;;;;;;;;;4958561;28;20130;-83
2022/03/18 01:52:26;;;;;;;6.93;5.00;;;;;;;;;;4955746;28;20509;-83
2022/03/18 01:54:52;;;;;;;7.05;4.90;;;;;;;;;;4923430;28;20038;-83
2022/03/18 01:57:19;;;;;;;8.38;5.38;;;;;;;;;;4928328;28;20066;-83
2022/03/18 01:59:45;;;;;;;6.57;5.07;;;;;;;;;;4947839;28;20496;-83
2022/03/18 02:02:11;;;;;;;7.97;5.30;;;;;;;;;;4955413;28;20031;-83
2022/03/18 02:04:36;;;;;;;7.22;5.20;;;;;;;;;;4955015;28;20114;-83
2022/03/18 02:07:03;;;;;;;6.63;5.28;;;;;;;;;;4958511;28;20485;-83
2022/03/18 02:09:29;;;;;;;6.68;5.55;;;;;;;;;;4958652;28;20041;-83
2022/03/18 02:11:55;;;;;;;7.97;5.35;;;;;;;;;;4974620;28;20113;-83
2022/03/18 02:14:41;;;;;;;6.95;4.80;;;;;;;;;;4974450;28;20053;-83
2022/03/18 02:17:08;;;;;;;6.38;5.25;;;;;;;;;;4990676;28;20035;-83
2022/03/18 02:19:34;;;;;;;6.82;4.90;;;;;;;;;;4974295;28;20109;-84
2022/03/18 02:22:00;;;;;;;6.88;4.90;;;;;;;;;;4958468;28;20513;-83
2022/03/18 02:24:25;;;;;;;5.97;4.43;;;;;;;;;;4974395;28;20045;-83
2022/03/18 02:26:52;;;;;;;6.57;5.47;;;;;;;;;;4964520;28;20043;-83
2022/03/18 02:29:18;;;;;;;6.57;4.97;;;;;;;;;;4939297;28;20031;-83
2022/03/18 02:31:44;;;;;;;6.53;4.75;;;;;;;;;;4971235;28;20027;-83
2022/03/18 02:34:09;;;;;;;6.22;5.13;;;;;;;;;;4955040;28;20203;-84
2022/03/18 02:36:35;;;;;;;7.10;4.97;;;;;;;;;;4957931;28;20440;-84
2022/03/18 02:39:00;;;;;;;6.90;5.28;;;;;;;;;;4974442;28;20409;-83
2022/03/18 02:41:26;;;;;;;6.88;5.15;;;;;;;;;;4974425;28;20041;-83
2022/03/18 02:43:51;;;;;;;7.22;5.28;;;;;;;;;;4974278;28;20046;-83
2022/03/18 02:46:17;;;;;;;5.85;4.65;;;;;;;;;;4958215;28;20114;-83
2022/03/18 02:48:42;;;;;;;6.05;4.95;;;;;;;;;;4974669;28;20096;-83
2022/03/18 02:51:08;;;;;;;7.78;5.20;;;;;;;;;;4971062;28;20106;-82
2022/03/18 02:53:34;;;;;;;5.85;5.05;;;;;;;;;;4971473;28;20031;-83
2022/03/18 02:56:02;;;;;;;6.00;4.85;;;;;;;;;;4990435;28;20182;-83
2022/03/18 02:58:28;;;;;;;6.80;4.82;;;;;;;;;;4975455;28;20039;-83
2022/03/18 03:00:53;;;;;;;7.57;5.18;;;;;;;;;;4977657;28;20121;-83
2022/03/18 03:03:19;;;;;;;6.13;4.68;;;;;;;;;;4993533;28;20618;-83
2022/03/18 03:08:29;;;;;;;6.18;5.10;;;;;;;;;;4961716;28;20039;-83
2022/03/18 03:10:54;;;;;;;6.82;5.05;;;;;;;;;;4958139;28;20857;-83
2022/03/18 03:13:19;;;;;;;7.47;5.18;;;;;;;;;;4942140;28;20057;-83
2022/03/18 03:15:45;;;;;;;6.45;4.82;;;;;;;;;;4941872;28;20130;-83
2022/03/18 03:18:10;;;;;;;5.70;4.70;;;;;;;;;;4958342;28;20039;-83
2022/03/18 03:20:36;;;;;;;6.28;4.60;;;;;;;;;;4947599;28;20038;-83
2022/03/18 03:23:01;;;;;;;6.22;4.88;;;;;;;;;;4977286;28;20065;-83
2022/03/18 03:25:27;;;;;;;6.50;4.90;;;;;;;;;;4977427;28;20409;-83
2022/03/18 03:27:53;;;;;;;7.30;5.63;;;;;;;;;;4976675;28;20042;-83
2022/03/18 03:30:19;;;;;;;6.70;4.90;;;;;;;;;;4961201;28;20405;-83
2022/03/18 03:32:45;;;;;;;6.95;5.03;;;;;;;;;;4977487;28;20042;-83
2022/03/18 03:35:10;;;;;;;6.18;4.53;;;;;;;;;;4971789;28;20037;-84
2022/03/18 03:37:36;;;;;;;6.00;4.70;;;;;;;;;;4960892;28;20412;-83
2022/03/18 03:40:02;;;;;;;6.00;4.85;;;;;;;;;;4960828;28;20121;-83
2022/03/18 03:42:27;;;;;;;7.22;4.82;;;;;;;;;;4960757;28;20099;-83
2022/03/18 03:44:53;;;;;;;6.15;5.20;;;;;;;;;;4976770;28;20408;-83
2022/03/18 03:47:18;;;;;;;6.40;4.72;;;;;;;;;;4961153;28;20042;-83
2022/03/18 03:49:44;;;;;;;8.07;5.28;;;;;;;;;;4976260;28;20125;-83
2022/03/18 03:52:10;;;;;;;7.40;5.07;;;;;;;;;;4976803;28;20042;-83
2022/03/18 03:54:37;;;;;;;5.57;4.82;;;;;;;;;;4976851;28;20041;-83
2022/03/18 03:57:06;;;;;;;5.45;4.55;;;;;;;;;;4976480;28;20085;-83
2022/03/18 03:59:32;;;;;;;6.85;5.07;;;;;;;;;;4961096;28;20511;-83
2022/03/18 04:01:58;;;;;;;5.85;5.18;;;;;;;;;;4992528;28;20034;-83
2022/03/18 04:04:24;;;;;;;6.43;5.30;;;;;;;;;;4992023;28;20121;-84
2022/03/18 04:06:50;;;;;;;6.00;4.80;;;;;;;;;;4978579;28;20044;-83
2022/03/18 04:09:19;;;;;;;5.93;4.55;;;;;;;;;;4996555;28;20085;-83
2022/03/18 04:11:44;;;;;;;6.95;4.82;;;;;;;;;;5012034;28;20038;-83
2022/03/18 04:14:10;;;;;;;6.15;4.38;;;;;;;;;;4993465;28;20057;-83
2022/03/18 04:16:35;;;;;;;6.10;4.50;;;;;;;;;;4976138;28;20101;-83
2022/03/18 04:19:03;;;;;;;6.13;5.03;;;;;;;;;;4959852;28;20030;-83
2022/03/18 04:21:29;;;;;;;5.88;4.80;;;;;;;;;;4976646;28;20394;-83
2022/03/18 04:23:54;;;;;;;6.22;4.82;;;;;;;;;;4991986;28;20045;-83
2022/03/18 04:26:20;;;;;;;6.53;5.28;;;;;;;;;;4975976;28;20489;-84
2022/03/18 04:28:46;;;;;;;7.45;5.28;;;;;;;;;;4976080;28;20033;-83
2022/03/18 04:31:12;;;;;;;6.50;5.05;;;;;;;;;;4992378;28;20041;-83
2022/03/18 04:33:37;;;;;;;6.32;5.15;;;;;;;;;;4975759;28;20419;-83
2022/03/18 04:36:03;;;;;;;6.13;4.50;;;;;;;;;;4992089;28;20096;-83
2022/03/18 04:38:29;;;;;;;5.93;4.53;;;;;;;;;;4975871;28;20081;-83
2022/03/18 04:40:54;;;;;;;6.30;5.20;;;;;;;;;;4959536;28;20421;-83
2022/03/18 04:43:20;;;;;;;5.55;4.45;;;;;;;;;;4975715;28;20041;-82
2022/03/18 04:45:45;;;;;;;7.05;6.22;;;;;;;;;;4975629;28;20042;-83
2022/03/18 04:48:11;;;;;;;5.40;4.75;;;;;;;;;;4975948;28;20489;-84
2022/03/18 04:50:36;;;;;;;6.47;5.78;;;;;;;;;;4959191;28;20057;-83
2022/03/18 04:53:03;;;;;;;6.38;4.95;;;;;;;;;;4975747;28;20038;-83
2022/03/18 04:55:28;;;;;;;5.97;4.95;;;;;;;;;;4975259;28;20084;-83
2022/03/18 04:57:55;;;;;;;5.93;4.78;;;;;;;;;;4975731;28;20038;-83
2022/03/18 05:00:24;;;;;;;5.43;4.18;;;;;;;;;;4991662;28;20049;-83
2022/03/18 05:02:50;;;;;;;5.32;4.50;;;;;;;;;;4992214;28;20041;-83
2022/03/18 05:05:19;;;;;;;5.82;4.80;;;;;;;;;;4974819;28;20176;-83
2022/03/18 05:07:49;;;;;;;5.75;4.93;;;;;;;;;;4979115;28;20113;-82
2022/03/18 05:10:15;;;;;;;5.20;4.50;;;;;;;;;;4971912;28;20102;-83
2022/03/18 05:12:40;;;;;;;5.50;4.97;;;;;;;;;;4988382;28;20027;-82
2022/03/18 05:15:09;;;;;;;6.43;4.50;;;;;;;;;;4987972;28;20038;-83
2022/03/18 05:17:35;;;;;;;5.70;4.85;;;;;;;;;;4987596;28;20054;-83
2022/03/18 05:20:01;;;;;;;5.75;4.47;;;;;;;;;;4987809;28;20030;-83
2022/03/18 05:22:26;;;;;;;5.15;4.65;;;;;;;;;;4988108;28;20510;-83
2022/03/18 05:24:52;;;;;;;4.75;3.95;;;;;;;;;;5004399;28;20046;-83
2022/03/18 05:27:18;;;;;;;5.50;5.00;;;;;;;;;;4971660;28;20023;-83
2022/03/18 05:29:44;;;;;;;5.47;4.88;;;;;;;;;;4988035;28;20129;-82
2022/03/18 05:32:10;;;;;;;5.10;4.32;;;;;;;;;;4971852;28;20077;-83
2022/03/18 05:34:36;;;;;;;6.20;4.70;;;;;;;;;;5006742;28;20074;-82
2022/03/18 05:37:02;;;;;;;5.35;4.75;;;;;;;;;;4974973;28;20439;-83
2022/03/18 05:39:27;;;;;;;5.05;4.53;;;;;;;;;;4957695;28;20034;-83
2022/03/18 05:41:52;;;;;;;5.30;4.53;;;;;;;;;;4974787;28;20041;-83
2022/03/18 05:44:18;;;;;;;6.30;4.38;;;;;;;;;;4974817;28;20038;-83
2022/03/18 05:46:43;;;;;;;6.03;4.50;;;;;;;;;;4974699;28;20493;-83
2022/03/18 05:49:09;;;;;;;5.82;4.57;;;;;;;;;;4974537;28;20642;-83
2022/03/18 05:51:35;;;;;;;5.88;4.35;;;;;;;;;;4974873;28;20050;-83
2022/03/18 05:54:00;;;;;;;6.32;4.70;;;;;;;;;;4974650;28;20451;-83
2022/03/18 05:59:11;;;;;;;5.75;4.43;;;;;;;;;;4977340;28;20069;-83
2022/03/18 06:01:41;;;;;;;4.82;4.32;;;;;;;;;;4990891;28;20397;-83
2022/03/18 06:04:07;;;;;;;5.45;4.20;;;;;;;;;;4940332;28;20129;-83
2022/03/18 06:06:32;;;;;;;6.00;4.68;;;;;;;;;;4925697;28;20578;-83
2022/03/18 06:12:15;;;;;;;5.38;4.50;;;;;;;;;;4978929;28;20038;-83
2022/03/18 06:14:33;;;;;;;5.95;4.70;;;;;;;;;;4980006;28;20088;-82
2022/03/18 06:17:00;;;;;;;15.05;5.53;;;;;;;;;;4974403;28;20031;-84
2022/03/18 06:19:27;;;;;;;16.05;5.30;;;;;;;;;;4971979;28;20039;-82
2022/03/18 06:21:52;;;;;;;9.75;4.57;;;;;;;;;;4971669;28;20092;-83
2022/03/18 06:24:18;;;;;;;12.85;5.22;;;;;;;;;;4972220;28;20038;-82
2022/03/18 06:26:44;;;;;;;7.95;4.47;;;;;;;;;;4974291;28;20039;-82
2022/03/18 06:29:10;;;;;;;8.13;4.78;;;;;;;;;;4975126;28;20039;-82
2022/03/18 06:31:35;;;;;;;9.38;5.47;;;;;;;;;;4993359;28;20035;-83
2022/03/18 06:34:01;;;;;;;6.95;4.50;;;;;;;;;;4977337;28;20061;-81
2022/03/18 06:36:27;;;;;;;9.93;5.63;;;;;;;;;;4977264;28;20412;-81
2022/03/18 06:38:52;;;;;;;10.93;4.75;;;;;;;;;;4978066;28;20026;-80
2022/03/18 06:41:19;;;;;;;10.38;5.22;;;;;;;;;;4977869;28;20047;-78
2022/03/18 06:43:46;;;;;;;12.98;5.72;;;;;;;;;;4977737;28;20407;-78
2022/03/18 06:46:11;;;;;;;10.52;5.28;;;;;;;;;;4994324;28;20026;-78
2022/03/18 06:48:37;;;;;;;10.60;5.13;;;;;;;;;;4994105;28;20050;-78
2022/03/18 06:51:02;;;;;;;12.15;5.38;;;;;;;;;;4977437;28;20042;-78
2022/03/18 06:53:28;;;;;;;10.43;5.00;;;;;;;;;;4977957;28;20397;-79
2022/03/18 06:55:53;;;;;;;17.23;6.30;;;;;;;;;;4977259;28;20049;-78
2022/03/18 06:58:19;;;;;;;13.40;5.75;;;;;;;;;;4977746;28;20056;-78
2022/03/18 07:00:47;;;;;;;13.68;5.35;;;;;;;;;;4994104;28;20053;-78
2022/03/18 07:03:13;;;;;;;23.23;7.43;;;;;;;;;;5009838;28;20053;-77
2022/03/18 07:05:38;;;;;;;9.10;5.00;;;;;;;;;;4977313;28;20489;-77
2022/03/18 07:08:04;;;;;;;11.15;4.55;;;;;;;;;;4977767;28;20092;-77
2022/03/18 07:10:30;;;;;;;7.68;4.72;;;;;;;;;;4961737;28;20038;-77
2022/03/18 07:12:55;;;;;;;10.75;5.75;;;;;;;;;;4961593;28;20492;-77
2022/03/18 07:15:21;;;;;;;9.68;5.07;;;;;;;;;;4977137;28;20105;-77
2022/03/18 07:17:55;;;;;;;7.57;4.68;;;;;;;;;;4977125;28;20117;-77
2022/03/18 07:20:22;;;;;;;9.50;5.68;;;;;;;;;;4978496;28;20129;-77
2022/03/18 07:23:09;;;;;;;8.10;4.70;;;;;;;;;;4977695;28;20027;-77
2022/03/18 07:25:56;;;;;;;10.02;4.28;;;;;;;;;;4983140;28;20113;-77
2022/03/18 07:28:21;;;;;;;7.57;4.65;;;;;;;;;;4979526;28;20026;-77
2022/03/18 07:30:46;;;;;;;9.13;5.28;;;;;;;;;;4976804;28;20555;-78
2022/03/18 07:33:12;;;;;;;11.00;4.70;;;;;;;;;;4977177;28;20120;-77
2022/03/18 07:35:38;;;;;;;8.98;4.78;;;;;;;;;;4976680;28;20149;-77
2022/03/18 07:38:05;;;;;;;9.27;4.65;;;;;;;;;;4977251;28;20069;-77
2022/03/18 07:40:30;;;;;;;15.40;5.32;;;;;;;;;;4961207;28;20074;-78
2022/03/18 07:42:57;;;;;;;11.73;5.78;;;;;;;;;;4976932;28;20056;-78
2022/03/18 07:45:23;;;;;;;9.15;4.25;;;;;;;;;;4976646;28;20041;-78
2022/03/18 07:47:49;;;;;;;11.77;4.78;;;;;;;;;;4975773;28;20512;-78
2022/03/18 07:50:20;;;;;;;9.48;5.32;;;;;;;;;;4976380;28;20096;-78
2022/03/18 07:52:49;;;;;;;11.45;5.30;;;;;;;;;;4977284;28;20130;-78
2022/03/18 07:55:14;;;;;;;10.07;4.88;;;;;;;;;;4976931;28;20034;-78
2022/03/18 07:57:40;;;;;;;12.73;5.18;;;;;;;;;;4976212;28;20050;-78
2022/03/18 08:00:06;;;;;;;9.85;4.75;;;;;;;;;;4976138;28;20477;-78
2022/03/18 08:02:31;;;;;;;8.88;4.32;;;;;;;;;;4976439;28;20037;-78
2022/03/18 08:04:57;;;;;;;9.23;4.32;;;;;;;;;;4972548;28;20050;-78
2022/03/18 08:07:22;;;;;;;7.82;4.32;;;;;;;;;;4957396;28;20042;-78
2022/03/18 08:09:48;;;;;;;9.65;4.95;;;;;;;;;;4957494;28;20047;-77
2022/03/18 08:12:13;;;;;;;7.10;4.07;;;;;;;;;;4956936;28;20039;-78
2022/03/18 08:14:39;;;;;;;9.52;3.70;;;;;;;;;;4972762;28;20572;-78
2022/03/18 08:17:04;;;;;;;8.32;4.72;;;;;;;;;;4941024;28;20035;-78
2022/03/18 08:19:29;;;;;;;7.15;3.97;;;;;;;;;;4956286;28;20039;-78
2022/03/18 08:21:55;;;;;;;9.25;4.13;;;;;;;;;;4973064;28;20042;-78
2022/03/18 08:24:20;;;;;;;7.28;4.38;;;;;;;;;;4956754;28;20039;-78
2022/03/18 08:26:46;;;;;;;5.90;3.72;;;;;;;;;;4956792;28;20031;-78
2022/03/18 08:29:11;;;;;;;8.27;4.05;;;;;;;;;;4956494;28;20043;-78
2022/03/18 08:31:37;;;;;;;7.80;3.85;;;;;;;;;;4956224;28;20584;-78
2022/03/18 08:34:02;;;;;;;6.13;3.90;;;;;;;;;;4956630;28;20053;-77
2022/03/18 08:36:27;;;;;;;6.18;3.78;;;;;;;;;;4959494;28;20038;-78
2022/03/18 08:38:53;;;;;;;7.85;3.67;;;;;;;;;;4975871;28;20046;-77
2022/03/18 08:41:18;;;;;;;6.90;4.03;;;;;;;;;;4976026;28;20038;-78
2022/03/18 08:43:44;;;;;;;7.07;3.58;;;;;;;;;;4959740;28;20046;-78
2022/03/18 08:46:09;;;;;;;6.57;3.85;;;;;;;;;;4991316;28;20046;-78
2022/03/18 08:48:34;;;;;;;7.20;3.72;;;;;;;;;;4975569;28;20042;-78
2022/03/18 08:51:00;;;;;;;6.57;3.13;;;;;;;;;;4991355;28;20505;-78
2022/03/18 08:53:25;;;;;;;4.90;3.20;;;;;;;;;;4992070;28;20042;-78
2022/03/18 08:55:51;;;;;;;6.25;2.83;;;;;;;;;;4975579;28;20038;-78
2022/03/18 08:58:16;;;;;;;6.57;2.88;;;;;;;;;;4975692;28;20489;-78
2022/03/18 09:00:41;;;;;;;5.32;2.72;;;;;;;;;;4991290;28;20516;-78
2022/03/18 09:03:07;;;;;;;4.55;2.60;;;;;;;;;;4991777;28;20481;-78
2022/03/18 09:05:32;;;;;;;5.00;2.47;;;;;;;;;;4975282;28;20043;-78
2022/03/18 09:07:58;;;;;;;3.72;2.20;;;;;;;;;;4975440;28;20045;-78
2022/03/18 09:10:24;;;;;;;5.55;2.30;;;;;;;;;;4959725;28;20030;-78
2022/03/18 09:13:01;;;;;;;4.50;2.67;;;;;;;;;;4975373;28;20034;-78
2022/03/18 09:15:27;;;;;;;4.20;1.90;;;;;;;;;;4990910;28;20037;-78
2022/03/18 09:17:53;;;;;;;5.63;2.10;;;;;;;;;;4975008;28;20333;-78
2022/03/18 09:20:18;;;;;;;5.88;2.50;;;;;;;;;;4974937;28;20405;-78
2022/03/18 09:22:43;;;;;;;4.20;1.98;;;;;;;;;;4959075;28;20126;-78
2022/03/18 09:25:09;;;;;;;4.03;2.00;;;;;;;;;;4958868;28;20034;-77
2022/03/18 09:27:34;;;;;;;3.78;2.25;;;;;;;;;;4975197;28;20046;-78
2022/03/18 09:30:00;;;;;;;6.68;2.20;;;;;;;;;;4974398;28;20073;-78
2022/03/18 09:32:28;;;;;;;5.65;2.15;;;;;;;;;;4975222;28;20443;-78
2022/03/18 09:34:55;;;;;;;4.45;1.80;;;;;;;;;;4972038;28;20101;-78
2022/03/18 09:37:20;;;;;;;5.30;1.58;;;;;;;;;;4974757;28;20122;-78
2022/03/18 09:39:45;;;;;;;4.15;1.70;;;;;;;;;;4958671;28;20031;-78
2022/03/18 09:42:11;;;;;;;4.30;1.73;;;;;;;;;;4975041;28;20386;-77
2022/03/18 09:44:37;;;;;;;4.13;1.80;;;;;;;;;;4990678;28;20499;-78
2022/03/18 09:47:03;;;;;;;3.70;2.10;;;;;;;;;;4959077;28;20467;-78
2022/03/18 09:49:28;;;;;;;3.83;1.63;;;;;;;;;;4975258;28;20026;-78
2022/03/18 09:51:54;;;;;;;3.80;1.80;;;;;;;;;;4974430;28;20111;-78
2022/03/18 09:54:19;;;;;;;3.65;1.67;;;;;;;;;;4958559;28;20038;-78
2022/03/18 09:56:47;;;;;;;4.40;1.55;;;;;;;;;;4991060;28;20034;-78
2022/03/18 09:59:13;;;;;;;4.40;1.30;;;;;;;;;;4974681;28;20102;-78
2022/03/18 10:01:39;;;;;;;4.38;1.88;;;;;;;;;;4991047;28;20040;-78
2022/03/18 10:04:12;;;;;;;4.40;2.17;;;;;;;;;;4985555;28;20089;-78
2022/03/18 10:06:38;;;;;;;;;;;;;;;;;;4975906;28;20039;-78
2022/03/18 10:09:04;;;;;;;3.90;1.35;;;;;;;;;;4975376;28;19910;-78
2022/03/18 10:11:31;;;;;;;4.00;1.35;;;;;;;;;;4959481;28;20121;-78
2022/03/18 10:14:07;;;;;;;3.95;1.23;;;;;;;;;;4975114;28;20452;-78
2022/03/18 10:16:43;;;;;;;3.47;1.42;;;;;;;;;;4959468;28;20054;-78
2022/03/18 10:19:13;;;;;;;4.38;1.30;;;;;;;;;;4975423;28;20047;-78
2022/03/18 10:21:54;;;;;;;3.90;1.35;;;;;;;;;;4975016;28;20065;-78
2022/03/18 10:24:33;;;;;;;4.60;1.48;;;;;;;;;;4991229;28;20038;-78
2022/03/18 10:27:32;;;;;;;3.63;1.00;;;;;;;;;;4959473;28;20116;-78
2022/03/18 10:29:58;;;;;;;4.00;1.27;;;;;;;;;;4942852;28;20045;-78
2022/03/18 10:32:24;;;;;;;2.50;1.35;;;;;;;;;;4975059;28;20114;-78
2022/03/18 10:37:45;;;;;;;3.50;1.08;;;;;;;;;;4980946;28;20042;-78
2022/03/18 10:40:11;;;;;;;2.92;1.02;;;;;;;;;;4978550;28;20126;-77
2022/03/18 10:42:36;;;;;;;2.65;1.00;;;;;;;;;;4977978;28;20046;-78
2022/03/18 10:45:02;;;;;;;3.25;1.00;;;;;;;;;;4977784;28;20096;-78
2022/03/18 10:47:34;;;;;;;3.40;1.00;;;;;;;;;;4961849;28;20085;-78
2022/03/18 10:50:16;;;;;;;3.33;1.00;;;;;;;;;;4994114;28;20038;-77
2022/03/18 10:52:45;;;;;;;;;;;;;;;;;;4978369;28;20460;-78
2022/03/18 10:55:20;;;;;;;2.10;0.80;;;;;;;;;;4994986;28;20446;-78
2022/03/18 10:58:01;;;;;;;3.53;1.00;;;;;;;;;;5010035;28;20103;-78
2022/03/18 11:00:30;;;;;;;2.90;1.00;;;;;;;;;;4993825;28;20117;-78
2022/03/18 11:02:58;;;;;;;2.97;1.00;;;;;;;;;;4993675;28;20041;-78
2022/03/18 11:05:23;;;;;;;2.33;0.88;;;;;;;;;;4994291;28;20085;-78
2022/03/18 11:07:52;;;;;;;4.07;1.10;;;;;;;;;;4977662;28;20038;-78
2022/03/18 11:13:03;;;;;;;2.67;0.88;;;;;;;;;;4980268;28;20038;-78
2022/03/18 11:15:32;;;;;;;2.75;0.88;;;;;;;;;;4976447;28;20038;-78
2022/03/18 11:17:58;;;;;;;2.72;1.13;;;;;;;;;;4977207;28;20040;-78
2022/03/18 11:20:27;;;;;;;2.88;0.80;;;;;;;;;;4977323;28;20035;-78
2022/03/18 11:22:53;;;;;;;2.58;0.80;;;;;;;;;;4977574;28;20113;-78
2022/03/18 11:25:18;;;;;;;3.95;0.80;;;;;;;;;;4961421;28;20070;-78
2022/03/18 11:27:45;;;;;;;3.75;0.98;;;;;;;;;;4976785;28;20442;-78
2022/03/18 11:30:18;;;;;;;2.95;1.10;;;;;;;;;;4977226;28;20053;-78
2022/03/18 11:32:44;;;;;;;4.22;0.60;;;;;;;;;;5009857;28;20102;-78
2022/03/18 11:35:09;;;;;;;3.45;0.93;;;;;;;;;;4968921;28;20450;-78
2022/03/18 11:37:35;;;;;;;3.35;0.93;;;;;;;;;;4957453;28;20069;-78
2022/03/18 11:40:19;;;;;;;2.22;0.80;;;;;;;;;;4958206;28;20413;-78
2022/03/18 11:42:45;;;;;;;3.80;1.50;;;;;;;;;;4989749;28;20102;-78
2022/03/18 11:45:13;;;;;;;2.22;0.60;;;;;;;;;;4957374;28;20043;-78
2022/03/18 11:47:40;;;;;;;2.50;0.60;;;;;;;;;;4942037;28;20027;-78
2022/03/18 11:50:34;;;;;;;2.47;0.73;;;;;;;;;;4957733;28;20038;-78
2022/03/18 11:52:59;;;;;;;2.03;0.60;;;;;;;;;;4976189;28;20037;-78
2022/03/18 11:55:24;;;;;;;2.63;0.60;;;;;;;;;;4976395;28;20042;-78
2022/03/18 11:57:50;;;;;;;2.42;0.70;;;;;;;;;;4992889;28;20508;-78
2022/03/18 12:00:31;;;;;;;3.67;0.80;;;;;;;;;;4992548;28;20046;-78
2022/03/18 12:02:56;;;;;;;1.73;0.68;;;;;;;;;;5009272;28;20509;-78
2022/03/18 12:05:22;;;;;;;3.28;0.93;;;;;;;;;;4974142;28;20042;-78
2022/03/18 12:07:49;;;;;;;3.63;0.80;;;;;;;;;;4973025;28;20045;-78
2022/03/18 12:10:15;;;;;;;2.53;0.80;;;;;;;;;;4957194;28;20085;-78
2022/03/18 12:12:41;;;;;;;1.75;0.63;;;;;;;;;;4973554;28;20122;-78
2022/03/18 12:15:12;;;;;;;2.78;0.65;;;;;;;;;;4973192;28;20039;-77
2022/03/18 12:17:44;;;;;;;1.58;0.57;;;;;;;;;;4972948;28;20038;-78
2022/03/18 12:20:11;;;;;;;2.55;0.60;;;;;;;;;;4973180;28;20035;-78
2022/03/18 12:22:37;;;;;;;2.47;0.80;;;;;;;;;;4957085;28;20039;-78
2022/03/18 12:25:04;;;;;;;2.80;0.77;;;;;;;;;;4972730;28;20081;-77
2022/03/18 12:27:30;;;;;;;2.90;0.52;;;;;;;;;;4972018;28;20035;-78
2022/03/18 12:29:59;;;;;;;2.65;0.68;;;;;;;;;;4973008;28;20047;-78
2022/03/18 12:32:24;;;;;;;2.33;0.90;;;;;;;;;;4972881;28;20034;-79
2022/03/18 12:34:51;;;;;;;1.92;0.73;;;;;;;;;;4975635;28;20054;-78
2022/03/18 12:37:31;;;;;;;2.10;0.80;;;;;;;;;;4992251;28;20036;-78
2022/03/18 12:40:10;;;;;;;1.73;0.50;;;;;;;;;;4960789;28;20030;-78
2022/03/18 12:42:48;;;;;;;2.10;1.08;;;;;;;;;;4960909;28;20046;-78
2022/03/18 12:45:32;;;;;;;2.38;0.68;;;;;;;;;;4991550;28;20035;-78
2022/03/18 12:48:07;;;;;;;2.70;0.45;;;;;;;;;;5125580;27;1281415;-79
2022/03/18 12:50:43;;;;;;;2.50;0.90;;;;;;;;;;5111734;28;20047;-78
2022/03/18 12:53:21;;;;;;;1.70;0.50;;;;;;;;;;5108087;28;20063;-79
2022/03/18 12:55:51;;;;;;;3.63;0.60;;;;;;;;;;5092299;28;20497;-79
2022/03/18 12:58:17;;;;;;;1.30;0.63;;;;;;;;;;5108336;28;20031;-78
2022/03/18 13:00:47;;;;;;;2.08;0.60;;;;;;;;;;5107613;28;20032;-78
2022/03/18 13:03:17;;;;;;;2.85;1.10;;;;;;;;;;5092619;28;20027;-79
2022/03/18 13:05:42;;;;;;;2.58;0.80;;;;;;;;;;5077656;28;20024;-78
2022/03/18 13:08:08;;;;;;;2.05;0.60;;;;;;;;;;5111053;28;20088;-79
2022/03/18 13:10:34;;;;;;;2.50;0.60;;;;;;;;;;5111173;28;20420;-79
2022/03/18 13:13:10;;;;;;;3.63;0.70;;;;;;;;;;5094514;28;20499;-78
2022/03/18 13:15:36;;;;;;;2.33;0.70;;;;;;;;;;5094375;28;20066;-79
2022/03/18 13:18:12;;;;;;;2.25;0.80;;;;;;;;;;5094183;28;20122;-78
2022/03/18 13:20:37;;;;;;;3.95;0.98;;;;;;;;;;5127858;28;20035;-78
2022/03/18 13:23:03;;;;;;;2.58;0.85;;;;;;;;;;5110643;28;20128;-78
2022/03/18 13:25:28;;;;;;;1.60;0.60;;;;;;;;;;5111154;28;20043;-78
2022/03/18 13:27:54;;;;;;;1.95;0.50;;;;;;;;;;5093821;28;20417;-78
2022/03/18 13:33:08;;;;;;;1.55;0.60;;;;;;;;;;5113801;28;20409;-79
2022/03/18 13:35:45;;;;;;;2.33;0.60;;;;;;;;;;5124523;28;20032;-79
2022/03/18 13:38:14;;;;;;;2.00;0.57;;;;;;;;;;5106933;28;20042;-78
2022/03/18 13:40:52;;;;;;;3.10;0.90;;;;;;;;;;5107617;28;20067;-78
2022/03/18 13:43:28;;;;;;;2.55;0.60;;;;;;;;;;5109134;28;20060;-78
2022/03/18 13:46:08;;;;;;;2.97;0.80;;;;;;;;;;5107573;28;20043;-78
2022/03/18 13:48:34;;;;;;;1.73;0.68;;;;;;;;;;5090277;28;20075;-78
2022/03/18 13:50:59;;;;;;;2.25;0.50;;;;;;;;;;5092342;28;20039;-79
2022/03/18 13:53:26;;;;;;;2.25;1.00;;;;;;;;;;5093359;28;20501;-78
2022/03/18 13:55:53;;;;;;;2.25;0.57;;;;;;;;;;5093814;28;20043;-79
2022/03/18 13:58:29;;;;;;;1.73;0.40;;;;;;;;;;5086329;28;20107;-78
2022/03/18 14:01:08;;;;;;;3.00;0.60;;;;;;;;;;5075049;28;20039;-78
2022/03/18 14:03:33;;;;;;;2.05;0.55;;;;;;;;;;5061659;28;20028;-78
2022/03/18 14:06:00;;;;;;;3.88;1.20;;;;;;;;;;5092980;28;20170;-78
2022/03/18 14:08:30;;;;;;;2.22;0.95;;;;;;;;;;5075253;28;20036;-78
2022/03/18 14:11:00;;;;;;;6.22;3.67;;;;;;;;;;5093665;28;20040;-78
2022/03/18 14:13:30;;;;;;;8.45;5.32;;;;;;;;;;5077120;28;20040;-78
2022/03/18 14:15:56;;;;;;;12.35;7.60;;;;;;;;;;5075619;28;20051;-78
2022/03/18 14:18:21;;;;;;;15.10;8.80;;;;;;;;;;5076434;28;20111;-78
2022/03/18 14:20:47;;;;;;;16.77;9.05;;;;;;;;;;5075778;28;20497;-78
2022/03/18 14:23:30;;;;;;;15.27;9.57;;;;;;;;;;5094026;28;20036;-78
2022/03/18 14:25:57;;;;;;;16.10;10.40;;;;;;;;;;5076069;28;20036;-78
2022/03/18 14:28:27;;;;;;;14.27;9.35;;;;;;;;;;5076161;28;20035;-78
2022/03/18 14:30:53;;;;;;;15.88;9.40;;;;;;;;;;5092513;28;20036;-78
2022/03/18 14:33:20;;;;;;;16.30;9.50;;;;;;;;;;5092754;28;20036;-78
2022/03/18 14:35:46;;;;;;;14.00;9.38;;;;;;;;;;5102223;28;20040;-78
2022/03/18 14:38:12;;;;;;;13.70;9.95;;;;;;;;;;5059643;28;20036;-78
2022/03/18 14:40:37;;;;;;;13.88;8.70;;;;;;;;;;5075894;28;20093;-78
2022/03/18 14:43:03;;;;;;;12.98;8.40;;;;;;;;;;5059294;28;20089;-78
2022/03/18 14:45:28;;;;;;;11.85;7.28;;;;;;;;;;5058992;28;20116;-78
2022/03/18 14:47:54;;;;;;;13.77;7.90;;;;;;;;;;5058540;28;20047;-78
2022/03/18 14:50:19;;;;;;;13.57;7.38;;;;;;;;;;5091861;28;20051;-78
2022/03/18 14:52:45;;;;;;;15.73;8.35;;;;;;;;;;5093261;28;20438;-78
2022/03/18 14:57:55;;;;;;;10.50;6.72;;;;;;;;;;5098352;28;20028;-78
2022/03/18 15:00:20;;;;;;;10.85;5.93;;;;;;;;;;5075452;28;20555;-78
2022/03/18 15:02:46;;;;;;;11.38;5.75;;;;;;;;;;5091854;28;20036;-78
2022/03/18 15:05:11;;;;;;;10.00;5.55;;;;;;;;;;5092364;28;20043;-78
2022/03/18 15:07:38;;;;;;;9.73;5.75;;;;;;;;;;5095162;28;20401;-78